Time;durP1;ratioP1;P1;durP2;ratioP2;P2;SDS_P1;SDS_P2;PMS_P1;PMS_P2;Temp;Humidity;BMP_temperature;BMP_pressure;BME280_temperature;BME280_humidity;BME280_pressure;Samples;Min_cycle;Max_cycle;Signal;HPM_P1;HPM_P2
2021/03/08 00:01:20;;;;;;;;;;;19.60;52.70;;;;;;5052525;28;1261;-70
2021/03/08 00:03:45;;;;;;;;;;;19.60;52.80;;;;;;5052923;28;1272;-69
2021/03/08 00:06:10;;;;;;;;;;;19.60;52.80;;;;;;5053808;28;1300;-70
2021/03/08 00:08:36;;;;;;;;;;;19.50;52.80;;;;;;5052343;28;1278;-69
2021/03/08 00:11:01;;;;;;;;;;;19.60;52.80;;;;;;5051426;28;1372;-69
2021/03/08 00:13:27;;;;;;;;;;;19.60;52.80;;;;;;5035096;28;1302;-70
2021/03/08 00:15:52;;;;;;;;;;;19.60;52.90;;;;;;5053399;28;1326;-70
2021/03/08 00:18:17;;;;;;;;;;;19.60;52.90;;;;;;5053461;28;1328;-70
2021/03/08 00:20:43;;;;;;;;;;;19.50;52.80;;;;;;5053308;28;1893;-70
2021/03/08 00:23:08;;;;;;;;;;;19.50;52.80;;;;;;5052110;28;1171;-70
2021/03/08 00:25:34;;;;;;;;;;;19.50;52.90;;;;;;5035301;28;1353;-70
2021/03/08 00:27:59;;;;;;;;;;;19.50;52.90;;;;;;5052876;28;1043;-70
2021/03/08 00:30:25;;;;;;;;;;;19.50;52.90;;;;;;5053324;28;1282;-70
2021/03/08 00:32:50;;;;;;;;;;;19.50;53.50;;;;;;5052076;28;1277;-70
2021/03/08 00:35:16;;;;;;;;;;;19.50;52.90;;;;;;5052985;28;1232;-70
2021/03/08 00:37:41;;;;;;;;;;;19.50;52.90;;;;;;5053122;28;1417;-70
2021/03/08 00:40:10;;;;;;;;;;;19.50;52.90;;;;;;5047448;28;1985;-70
2021/03/08 00:42:36;;;;;;;;;;;19.50;52.90;;;;;;5044676;28;1318;-70
2021/03/08 00:45:04;;;;;;;;;;;19.50;53.00;;;;;;5050935;28;1374;-70
2021/03/08 00:47:29;;;;;;;;;;;19.50;53.00;;;;;;5052078;28;1335;-70
2021/03/08 00:49:55;;;;;;;;;;;19.50;53.00;;;;;;5050925;28;1305;-69
2021/03/08 00:52:20;;;;;;;;;;;19.50;53.00;;;;;;5052507;28;1235;-69
2021/03/08 00:54:46;;;;;;;;;;;19.50;53.00;;;;;;5050394;28;1277;-70
2021/03/08 00:57:11;;;;;;;;;;;19.50;53.00;;;;;;5051606;28;1251;-69
2021/03/08 00:59:37;;;;;;;;;;;19.50;53.10;;;;;;5051781;28;1902;-70
2021/03/08 01:02:03;;;;;;;;;;;19.50;53.10;;;;;;5051399;28;1252;-69
2021/03/08 01:04:28;;;;;;;;;;;19.40;53.00;;;;;;5053028;28;1310;-70
2021/03/08 01:06:54;;;;;;;;;;;19.40;53.00;;;;;;5052737;28;1242;-70
2021/03/08 01:09:19;;;;;;;;;;;19.40;53.00;;;;;;5052573;28;1286;-70
2021/03/08 01:11:44;;;;;;;;;;;19.40;53.00;;;;;;5052667;28;1282;-70
2021/03/08 01:14:10;;;;;;;;;;;19.40;53.00;;;;;;5051549;28;1251;-70
2021/03/08 01:16:36;;;;;;;;;;;19.40;53.10;;;;;;5053538;28;1259;-72
2021/03/08 01:19:01;;;;;;;;;;;19.40;53.10;;;;;;5068520;28;1967;-71
2021/03/08 01:21:26;;;;;;;;;;;19.40;53.10;;;;;;5069157;28;1314;-70
2021/03/08 01:23:52;;;;;;;;;;;19.40;53.10;;;;;;5045091;28;1163;-70
2021/03/08 01:26:17;;;;;;;;;;;19.40;53.10;;;;;;5045941;28;1391;-70
2021/03/08 01:28:43;;;;;;;;;;;19.40;53.10;;;;;;5045883;28;1192;-70
2021/03/08 01:31:08;;;;;;;;;;;19.40;53.70;;;;;;5044632;28;1204;-71
2021/03/08 01:33:34;;;;;;;;;;;19.40;53.10;;;;;;5045539;28;1412;-70
2021/03/08 01:35:59;;;;;;;;;;;19.40;53.10;;;;;;5044436;28;1300;-70
2021/03/08 01:38:24;;;;;;;;;;;19.40;53.10;;;;;;5047786;28;1298;-70
2021/03/08 01:40:50;;;;;;;;;;;19.40;53.10;;;;;;5044362;28;1914;-70
2021/03/08 01:43:15;;;;;;;;;;;19.40;53.20;;;;;;5044381;28;1350;-70
2021/03/08 01:45:41;;;;;;;;;;;19.40;53.20;;;;;;5045086;28;1302;-70
2021/03/08 01:48:06;;;;;;;;;;;19.40;53.20;;;;;;5046028;28;1275;-70
2021/03/08 01:50:42;;;;;;;;;;;19.40;53.20;;;;;;5044756;28;1192;-71
2021/03/08 01:53:08;;;;;;;;;;;19.30;53.20;;;;;;5045352;28;1291;-70
2021/03/08 01:55:33;;;;;;;;;;;19.30;53.20;;;;;;5044322;28;1290;-70
2021/03/08 01:57:59;;;;;;;;;;;19.30;53.20;;;;;;5044072;28;1319;-71
2021/03/08 02:00:25;;;;;;;;;;;19.30;53.20;;;;;;5045556;28;1898;-72
2021/03/08 02:02:50;;;;;;;;;;;19.30;53.20;;;;;;5046488;28;1270;-70
2021/03/08 02:05:16;;;;;;;;;;;19.30;53.20;;;;;;5045978;28;1293;-71
2021/03/08 02:07:41;;;;;;;;;;;19.30;53.20;;;;;;5065473;28;1333;-71
2021/03/08 02:10:10;;;;;;;;;;;19.30;53.20;;;;;;5052800;28;1040;-71
2021/03/08 02:12:48;;;;;;;;;;;19.30;53.20;;;;;;5068239;28;1301;-71
2021/03/08 02:15:19;;;;;;;;;;;19.30;53.30;;;;;;5052756;28;1373;-71
2021/03/08 02:17:50;;;;;;;;;;;19.30;53.30;;;;;;5052609;28;1328;-71
2021/03/08 02:20:25;;;;;;;;;;;19.30;53.30;;;;;;5068316;28;1891;-71
2021/03/08 02:23:03;;;;;;;;;;;19.30;53.30;;;;;;5051443;28;1166;-70
2021/03/08 02:25:46;;;;;;;;;;;19.30;53.30;;;;;;5052560;28;1315;-70
2021/03/08 02:28:30;;;;;;;;;;;19.30;53.30;;;;;;5041037;28;1228;-70
2021/03/08 02:30:57;;;;;;;;;;;19.30;53.30;;;;;;5040447;28;1277;-70
2021/03/08 02:33:24;;;;;;;;;;;19.30;53.30;;;;;;5068108;28;1334;-71
2021/03/08 02:35:51;;;;;;;;;;;19.30;53.30;;;;;;5055607;28;1300;-69
2021/03/08 02:38:17;;;;;;;;;;;19.30;53.30;;;;;;5071804;28;1087;-69
2021/03/08 02:40:44;;;;;;;;;;;19.30;53.30;;;;;;5063215;28;1977;-69
2021/03/08 02:43:42;;;;;;;;;;;19.30;53.30;;;;;;5051195;28;1294;-69
2021/03/08 02:46:10;;;;;;;;;;;19.30;53.30;;;;;;5054927;28;1326;-68
2021/03/08 02:48:36;;;;;;;;;;;19.30;53.30;;;;;;5071672;28;1345;-68
2021/03/08 02:51:03;;;;;;;;;;;19.30;53.30;;;;;;5056401;28;1328;-69
2021/03/08 02:53:28;;;;;;;;;;;19.30;53.20;;;;;;5072084;28;1295;-70
2021/03/08 02:55:55;;;;;;;;;;;19.30;53.20;;;;;;5071547;28;1370;-70
2021/03/08 02:58:20;;;;;;;;;;;19.30;53.20;;;;;;5056218;28;1331;-69
2021/03/08 03:00:47;;;;;;;;;;;19.30;53.20;;;;;;5071441;28;1894;-68
2021/03/08 03:03:13;;;;;;;;;;;19.30;53.10;;;;;;5071634;28;1150;-67
2021/03/08 03:05:39;;;;;;;;;;;19.30;53.10;;;;;;5071643;28;1366;-70
2021/03/08 03:08:05;;;;;;;;;;;19.30;53.10;;;;;;5054627;28;1404;-69
2021/03/08 03:10:31;;;;;;;;;;;19.30;53.10;;;;;;5071216;28;1296;-69
2021/03/08 03:12:56;;;;;;;;;;;19.30;53.10;;;;;;5071568;28;1278;-69
2021/03/08 03:15:22;;;;;;;;;;;19.40;53.10;;;;;;5071324;28;1403;-69
2021/03/08 03:17:47;;;;;;;;;;;19.40;53.10;;;;;;5071309;28;1331;-69
2021/03/08 03:20:13;;;;;;;;;;;19.40;53.10;;;;;;5071270;28;1968;-69
2021/03/08 03:22:39;;;;;;;;;;;19.40;53.00;;;;;;5071441;28;1067;-69
2021/03/08 03:25:05;;;;;;;;;;;19.40;53.00;;;;;;5055696;28;1326;-69
2021/03/08 03:27:30;;;;;;;;;;;19.40;53.10;;;;;;5065184;28;1270;-69
2021/03/08 03:29:56;;;;;;;;;;;19.40;53.00;;;;;;5048206;28;1037;-68
2021/03/08 03:32:21;;;;;;;;;;;19.40;53.00;;;;;;5054523;28;1314;-68
2021/03/08 03:34:47;;;;;;;;;;;19.40;53.10;;;;;;5055592;28;1276;-68
2021/03/08 03:37:13;;;;;;;;;;;19.40;53.00;;;;;;5070783;28;1290;-68
2021/03/08 03:39:40;;;;;;;;;;;19.40;52.90;;;;;;5070714;28;1906;-68
2021/03/08 03:42:05;;;;;;;;;;;19.50;52.90;;;;;;5041856;28;1111;-68
2021/03/08 03:44:31;;;;;;;;;;;19.50;52.80;;;;;;5054147;28;1315;-68
2021/03/08 03:46:56;;;;;;;;;;;19.60;52.70;;;;;;5054045;28;1321;-68
2021/03/08 03:49:22;;;;;;;;;;;19.70;52.50;;;;;;5055085;28;1257;-68
2021/03/08 03:51:47;;;;;;;;;;;19.80;52.30;;;;;;5054184;28;1277;-68
2021/03/08 03:54:12;;;;;;;;;;;19.90;52.00;;;;;;5055238;28;1333;-68
2021/03/08 03:56:51;;;;;;;;;;;20.10;51.80;;;;;;5055274;28;1277;-68
2021/03/08 03:59:23;;;;;;;;;;;20.20;51.60;;;;;;5053522;28;1949;-69
2021/03/08 04:01:57;;;;;;;;;;;20.30;51.40;;;;;;5053893;28;1111;-69
2021/03/08 04:04:42;;;;;;;;;;;20.40;51.20;;;;;;5053596;28;1264;-67
2021/03/08 04:07:08;;;;;;;;;;;20.50;50.90;;;;;;5054441;28;1359;-67
2021/03/08 04:09:33;;;;;;;;;;;20.60;50.80;;;;;;5053675;28;1400;-67
2021/03/08 04:11:59;;;;;;;;;;;20.60;50.60;;;;;;5053752;28;1388;-67
2021/03/08 04:14:24;;;;;;;;;;;20.70;50.40;;;;;;5054956;28;1285;-67
2021/03/08 04:16:55;;;;;;;;;;;20.80;50.30;;;;;;5053550;28;1303;-67
2021/03/08 04:19:21;;;;;;;;;;;20.80;50.20;;;;;;5053243;28;1898;-68
2021/03/08 04:21:46;;;;;;;;;;;20.90;50.10;;;;;;5053698;28;1382;-68
2021/03/08 04:24:12;;;;;;;;;;;20.90;50.00;;;;;;5054712;28;1055;-68
2021/03/08 04:26:38;;;;;;;;;;;21.00;50.00;;;;;;5053788;28;1406;-68
2021/03/08 04:29:03;;;;;;;;;;;21.00;49.90;;;;;;5054565;28;1151;-68
2021/03/08 04:31:29;;;;;;;;;;;21.00;49.80;;;;;;5053102;28;1349;-68
2021/03/08 04:33:54;;;;;;;;;;;21.00;49.70;;;;;;5053278;28;1298;-69
2021/03/08 04:36:20;;;;;;;;;;;21.10;49.70;;;;;;5052935;28;1372;-68
2021/03/08 04:38:45;;;;;;;;;;;21.10;49.60;;;;;;5052932;28;1913;-69
2021/03/08 04:41:11;;;;;;;;;;;21.20;49.60;;;;;;5053214;28;1171;-70
2021/03/08 04:43:37;;;;;;;;;;;21.20;49.50;;;;;;5053130;28;1256;-68
2021/03/08 04:46:02;;;;;;;;;;;21.20;49.50;;;;;;5054315;28;1370;-69
2021/03/08 04:48:28;;;;;;;;;;;21.20;49.50;;;;;;5052655;28;1318;-69
2021/03/08 04:50:53;;;;;;;;;;;21.30;49.40;;;;;;5054421;28;1278;-69
2021/03/08 04:53:18;;;;;;;;;;;21.30;49.40;;;;;;5054355;28;1397;-69
2021/03/08 04:55:44;;;;;;;;;;;21.30;49.40;;;;;;5054072;28;1383;-69
2021/03/08 04:58:10;;;;;;;;;;;21.30;49.40;;;;;;5051890;28;1437;-68
2021/03/08 05:00:35;;;;;;;;;;;21.30;49.40;;;;;;5052754;28;1949;-69
2021/03/08 05:03:01;;;;;;;;;;;21.30;49.30;;;;;;5052442;28;1307;-69
2021/03/08 05:05:26;;;;;;;;;;;21.40;49.30;;;;;;5052804;28;1272;-68
2021/03/08 05:08:01;;;;;;;;;;;21.40;49.30;;;;;;5053664;28;1354;-69
2021/03/08 05:10:27;;;;;;;;;;;21.40;49.30;;;;;;5052454;28;1330;-70
2021/03/08 05:12:53;;;;;;;;;;;21.40;49.30;;;;;;5053943;28;1399;-69
2021/03/08 05:15:18;;;;;;;;;;;21.40;49.30;;;;;;5052212;28;1265;-70
2021/03/08 05:17:43;;;;;;;;;;;21.40;49.30;;;;;;5052433;28;1401;-69
2021/03/08 05:20:10;;;;;;;;;;;21.40;49.30;;;;;;5052314;28;1987;-69
2021/03/08 05:22:35;;;;;;;;;;;21.40;49.30;;;;;;5052650;28;1299;-69
2021/03/08 05:25:01;;;;;;;;;;;21.40;49.30;;;;;;5052302;28;1316;-69
2021/03/08 05:27:26;;;;;;;;;;;21.40;49.30;;;;;;5053305;28;1529;-68
2021/03/08 05:29:52;;;;;;;;;;;21.40;49.30;;;;;;5052347;28;1316;-69
2021/03/08 05:32:24;;;;;;;;;;;21.40;49.40;;;;;;5035800;28;1298;-69
2021/03/08 05:34:49;;;;;;;;;;;21.40;49.30;;;;;;5068750;28;1349;-68
2021/03/08 05:37:15;;;;;;;;;;;21.40;49.40;;;;;;5068563;28;1365;-68
2021/03/08 05:39:44;;;;;;;;;;;21.40;49.40;;;;;;5068327;28;1974;-68
2021/03/08 05:42:12;;;;;;;;;;;21.40;49.40;;;;;;5041439;28;1279;-68
2021/03/08 05:44:44;;;;;;;;;;;21.40;49.50;;;;;;5052887;28;1275;-68
2021/03/08 05:47:28;;;;;;;;;;;21.40;49.50;;;;;;5052953;28;1342;-69
2021/03/08 05:50:01;;;;;;;;;;;21.40;49.50;;;;;;5053227;28;1420;-69
2021/03/08 05:52:45;;;;;;;;;;;21.30;49.50;;;;;;5051685;28;1264;-69
2021/03/08 05:55:26;;;;;;;;;;;21.30;49.60;;;;;;5053126;28;1369;-69
2021/03/08 05:58:06;;;;;;;;;;;21.30;49.70;;;;;;5034984;28;1371;-69
2021/03/08 06:00:39;;;;;;;;;;;21.30;49.70;;;;;;5052921;28;1977;-69
2021/03/08 06:03:19;;;;;;;;;;;21.30;49.80;;;;;;5051823;28;1278;-69
2021/03/08 06:06:03;;;;;;;;;;;21.20;49.80;;;;;;5051619;28;1346;-69
2021/03/08 06:08:28;;;;;;;;;;;21.20;49.90;;;;;;5052472;28;1267;-69
2021/03/08 06:11:01;;;;;;;;;;;21.20;50.00;;;;;;5052103;28;1314;-69
2021/03/08 06:13:26;;;;;;;;;;;21.20;50.00;;;;;;5034899;28;1399;-69
2021/03/08 06:15:54;;;;;;;;;;;21.10;50.00;;;;;;5051322;28;1273;-69
2021/03/08 06:18:20;;;;;;;;;;;21.10;50.10;;;;;;5051444;28;1367;-69
2021/03/08 06:20:46;;;;;;;;;;;21.10;50.10;;;;;;5052584;28;1906;-69
2021/03/08 06:23:11;;;;;;;;;;;21.00;50.20;;;;;;5051583;28;1333;-68
2021/03/08 06:25:38;;;;;;;;;;;21.00;50.20;;;;;;5051338;28;1371;-68
2021/03/08 06:28:03;;;;;;;;;;;21.00;50.20;;;;;;5041235;28;1143;-68
2021/03/08 06:30:28;;;;;;;;;;;21.00;50.30;;;;;;5050879;28;1133;-68
2021/03/08 06:32:54;;;;;;;;;;;21.00;50.30;;;;;;5052905;28;1123;-68
2021/03/08 06:35:19;;;;;;;;;;;21.00;50.40;;;;;;5052434;28;1427;-69
2021/03/08 06:37:48;;;;;;;;;;;21.00;50.40;;;;;;5052532;28;1321;-68
2021/03/08 06:40:15;;;;;;;;;;;20.90;50.40;;;;;;5063073;28;1957;-69
2021/03/08 06:42:41;;;;;;;;;;;20.90;50.40;;;;;;5043389;28;1319;-68
2021/03/08 06:45:07;;;;;;;;;;;20.90;50.50;;;;;;5052410;28;1341;-68
2021/03/08 06:47:33;;;;;;;;;;;20.90;50.50;;;;;;5051999;28;1060;-68
2021/03/08 06:49:58;;;;;;;;;;;20.80;50.50;;;;;;5052481;28;1260;-69
2021/03/08 06:52:24;;;;;;;;;;;20.80;50.60;;;;;;5051216;28;1298;-69
2021/03/08 06:55:02;;;;;;;;;;;20.80;50.70;;;;;;5051123;28;1348;-69
2021/03/08 06:57:28;;;;;;;;;;;20.80;50.70;;;;;;5050380;28;1282;-69
2021/03/08 07:00:01;;;;;;;;;;;20.80;50.70;;;;;;5051309;28;1902;-69
2021/03/08 07:02:36;;;;;;;;;;;20.80;50.80;;;;;;5050994;28;1306;-69
2021/03/08 07:05:02;;;;;;;;;;;20.80;50.80;;;;;;5051142;28;1365;-69
2021/03/08 07:07:27;;;;;;;;;;;20.80;50.90;;;;;;5051938;28;1294;-68
2021/03/08 07:09:53;;;;;;;;;;;20.70;50.90;;;;;;5050885;28;1309;-69
2021/03/08 07:12:18;;;;;;;;;;;20.70;50.90;;;;;;5051138;28;1194;-69
2021/03/08 07:14:44;;;;;;;;;;;20.70;51.00;;;;;;5050926;28;1448;-69
2021/03/08 07:17:29;;;;;;;;;;;20.70;51.00;;;;;;5050810;28;1342;-70
2021/03/08 07:19:54;;;;;;;;;;;20.70;51.10;;;;;;5040312;28;1952;-68
2021/03/08 07:22:38;;;;;;;;;;;20.60;51.10;;;;;;5052598;28;1249;-68
2021/03/08 07:25:05;;;;;;;;;;;20.60;51.10;;;;;;5055549;28;1390;-68
2021/03/08 07:27:40;;;;;;;;;;;20.60;51.10;;;;;;5050726;28;1302;-68
2021/03/08 07:30:06;;;;;;;;;;;20.60;51.20;;;;;;5049807;28;1327;-68
2021/03/08 07:32:31;;;;;;;;;;;20.60;51.20;;;;;;5055667;28;1253;-68
2021/03/08 07:34:56;;;;;;;;;;;20.60;51.30;;;;;;5054855;28;1289;-68
2021/03/08 07:37:22;;;;;;;;;;;20.50;51.20;;;;;;5070744;28;1361;-69
2021/03/08 07:39:53;;;;;;;;;;;20.50;51.20;;;;;;5053912;28;1957;-68
2021/03/08 07:42:18;;;;;;;;;;;20.50;51.30;;;;;;5043107;28;1350;-67
2021/03/08 07:44:48;;;;;;;;;;;20.50;51.30;;;;;;5054233;28;1287;-66
2021/03/08 07:47:14;;;;;;;;;;;20.50;51.30;;;;;;5055093;28;1103;-67
2021/03/08 07:49:40;;;;;;;;;;;20.50;51.40;;;;;;5053635;28;1274;-66
2021/03/08 07:52:06;;;;;;;;;;;20.40;51.30;;;;;;5054316;28;1341;-66
2021/03/08 07:54:50;;;;;;;;;;;20.50;51.40;;;;;;5055229;28;1296;-67
2021/03/08 07:57:15;;;;;;;;;;;20.50;51.40;;;;;;5045390;28;1063;-66
2021/03/08 07:59:41;;;;;;;;;;;20.50;51.50;;;;;;5052332;28;1953;-65
2021/03/08 08:02:06;;;;;;;;;;;20.40;51.50;;;;;;5070192;28;1283;-67
2021/03/08 08:04:32;;;;;;;;;;;20.40;51.50;;;;;;5054921;28;1362;-70
2021/03/08 08:06:57;;;;;;;;;;;20.40;51.50;;;;;;5054989;28;1384;-66
2021/03/08 08:09:22;;;;;;;;;;;20.40;51.60;;;;;;5067268;28;1922;-67
2021/03/08 08:11:48;;;;;;;;;;;20.40;51.60;;;;;;5051782;28;1089;-67
2021/03/08 08:14:13;;;;;;;;;;;20.30;51.60;;;;;;5048423;28;1526;-67
2021/03/08 08:16:41;;;;;;;;;;;20.30;51.60;;;;;;5049372;28;1314;-67
2021/03/08 08:19:07;;;;;;;;;;;20.30;51.60;;;;;;5069639;28;1973;-67
2021/03/08 08:21:37;;;;;;;;;;;20.30;51.70;;;;;;5053444;28;1311;-67
2021/03/08 08:24:03;;;;;;;;;;;20.30;51.70;;;;;;5054552;28;1318;-67
2021/03/08 08:26:28;;;;;;;;;;;20.30;51.70;;;;;;5053445;28;1301;-67
2021/03/08 08:28:54;;;;;;;;;;;20.30;51.80;;;;;;5057729;28;1051;-67
2021/03/08 08:31:19;;;;;;;;;;;20.30;51.80;;;;;;5054325;28;1264;-67
2021/03/08 08:33:45;;;;;;;;;;;20.30;51.80;;;;;;5056503;28;1487;-67
2021/03/08 08:36:11;;;;;;;;;;;20.30;51.80;;;;;;5048189;22;2651;-62
2021/03/08 08:38:37;;;;;;;;;;;20.20;51.80;;;;;;4993856;28;1729;-67
2021/03/08 08:41:15;;;;;;;;;;;20.20;51.80;;;;;;4975664;28;1915;-66
2021/03/08 08:43:41;;;;;;;;;;;20.20;51.90;;;;;;4956285;28;1365;-67
2021/03/08 08:46:22;;;;;;;;;;;20.20;51.90;;;;;;4971718;28;1270;-65
2021/03/08 08:49:04;;;;;;;;;;;20.20;51.90;;;;;;4974133;28;1406;-67
2021/03/08 08:51:44;;;;;;;;;;;20.20;52.00;;;;;;4974403;28;1481;-67
2021/03/08 08:54:09;;;;;;;;;;;20.20;52.00;;;;;;4958154;28;1498;-66
2021/03/08 08:56:46;;;;;;;;;;;20.20;52.00;;;;;;4975542;28;1683;-67
2021/03/08 08:59:20;;;;;;;;;;;20.20;52.00;;;;;;4974071;28;1970;-67
2021/03/08 09:01:45;;;;;;;;;;;20.10;52.00;;;;;;4975507;28;1278;-67
2021/03/08 09:04:12;;;;;;;;;;;20.10;52.10;;;;;;4975167;28;1180;-67
2021/03/08 09:06:37;;;;;;;;;;;20.10;52.70;;;;;;4974714;28;1745;-66
2021/03/08 09:09:03;;;;;;;;;;;20.10;52.10;;;;;;4975003;28;1465;-67
2021/03/08 09:11:44;;;;;;;;;;;20.10;52.10;;;;;;4970688;28;1768;-67
2021/03/08 09:14:23;;;;;;;;;;;20.10;52.10;;;;;;4988561;28;1724;-66
2021/03/08 09:16:49;;;;;;;;;;;20.10;52.20;;;;;;4970360;28;1537;-66
2021/03/08 09:19:18;;;;;;;;;;;20.10;52.20;;;;;;4974350;28;1946;-66
2021/03/08 09:21:44;;;;;;;;;;;20.10;52.20;;;;;;4975279;28;1669;-67
2021/03/08 09:24:28;;;;;;;;;;;20.10;52.20;;;;;;4974908;28;1342;-67
2021/03/08 09:26:53;;;;;;;;;;;20.00;52.20;;;;;;4974879;28;1515;-66
2021/03/08 09:29:21;;;;;;;;;;;20.10;52.30;;;;;;4974549;28;1422;-66
2021/03/08 09:31:46;;;;;;;;;;;20.00;52.20;;;;;;4974760;28;1486;-66
2021/03/08 09:34:12;;;;;;;;;;;20.00;52.30;;;;;;4973623;28;1479;-67
2021/03/08 09:36:37;;;;;;;;;;;20.00;52.30;;;;;;4989654;28;1375;-67
2021/03/08 09:39:06;;;;;;;;;;;20.00;52.30;;;;;;4972980;28;1968;-66
2021/03/08 09:41:31;;;;;;;;;;;20.00;52.30;;;;;;4974700;28;1682;-67
2021/03/08 09:43:57;;;;;;;;;;;20.00;52.30;;;;;;4973888;28;1638;-65
2021/03/08 09:46:23;;;;;;;;;;;20.00;52.30;;;;;;4972651;28;1416;-66
2021/03/08 09:48:52;;;;;;;;;;;20.00;52.30;;;;;;4971925;28;1602;-66
2021/03/08 09:51:17;;;;;;;;;;;20.00;52.40;;;;;;4972150;28;1748;-65
2021/03/08 09:53:43;;;;;;;;;;;20.00;52.30;;;;;;4972990;28;1673;-66
2021/03/08 09:56:18;;;;;;;;;;;20.00;52.30;;;;;;4972844;28;1674;-67
2021/03/08 09:58:44;;;;;;;;;;;20.00;52.40;;;;;;4972276;28;1330;-66
2021/03/08 10:01:24;;;;;;;;;;;20.00;52.40;;;;;;4974387;28;1899;-65
2021/03/08 10:03:50;;;;;;;;;;;20.00;52.40;;;;;;4973122;28;1712;-66
2021/03/08 10:06:25;;;;;;;;;;;20.00;52.30;;;;;;4974366;28;1503;-67
2021/03/08 10:08:50;;;;;;;;;;;20.00;52.40;;;;;;4972850;28;1682;-66
2021/03/08 10:11:19;;;;;;;;;;;20.00;52.30;;;;;;4973544;28;1331;-65
2021/03/08 10:13:45;;;;;;;;;;;20.00;52.40;;;;;;4989314;28;1367;-67
2021/03/08 10:16:10;;;;;;;;;;;20.00;52.30;;;;;;4974049;28;1675;-65
2021/03/08 10:18:35;;;;;;;;;;;20.00;52.30;;;;;;4973610;28;1675;-67
2021/03/08 10:21:02;;;;;;;;;;;20.00;52.40;;;;;;4975088;28;1899;-67
2021/03/08 10:23:31;;;;;;;;;;;20.00;52.30;;;;;;4974280;28;1732;-67
2021/03/08 10:26:06;;;;;;;;;;;20.00;52.30;;;;;;4973043;28;1314;-66
2021/03/08 10:28:39;;;;;;;;;;;20.00;52.30;;;;;;4972854;28;1705;-67
2021/03/08 10:31:05;;;;;;;;;;;20.00;52.30;;;;;;4972828;28;1709;-63
2021/03/08 10:33:30;;;;;;;;;;;20.00;52.30;;;;;;4976733;28;1669;-63
2021/03/08 10:35:56;;;;;;;;;;;19.90;52.30;;;;;;4983051;28;1589;-63
2021/03/08 10:38:27;;;;;;;;;;;20.00;52.40;;;;;;4972490;28;1498;-64
2021/03/08 10:40:53;;;;;;;;;;;20.00;52.40;;;;;;4974094;28;1902;-63
2021/03/08 10:43:20;;;;;;;;;;;20.00;52.40;;;;;;4989148;28;1742;-63
2021/03/08 10:45:47;;;;;;;;;;;20.00;52.40;;;;;;4974029;28;1606;-66
2021/03/08 10:48:12;;;;;;;;;;;20.00;52.40;;;;;;4972449;28;1652;-63
2021/03/08 10:50:39;;;;;;;;;;;20.00;52.40;;;;;;4974027;28;1383;-63
2021/03/08 10:53:05;;;;;;;;;;;20.00;52.40;;;;;;4972652;28;1716;-63
2021/03/08 10:55:30;;;;;;;;;;;20.00;52.40;;;;;;4956786;28;1389;-63
2021/03/08 10:57:55;;;;;;;;;;;19.90;52.40;;;;;;4976174;28;1551;-66
2021/03/08 11:00:21;;;;;;;;;;;19.90;52.30;;;;;;4976295;28;1899;-62
2021/03/08 11:02:46;;;;;;;;;;;19.90;52.40;;;;;;4977612;28;1398;-63
2021/03/08 11:05:12;;;;;;;;;;;19.90;52.40;;;;;;4977401;28;1582;-66
2021/03/08 11:07:38;;;;;;;;;;;19.90;52.40;;;;;;4959733;28;1635;-62
2021/03/08 11:10:04;;;;;;;;;;;19.90;53.00;;;;;;4977626;28;1401;-63
2021/03/08 11:12:29;;;;;;;;;;;19.90;52.40;;;;;;4977324;28;1621;-62
2021/03/08 11:14:55;;;;;;;;;;;19.90;52.40;;;;;;4974928;28;1922;-67
2021/03/08 11:17:30;;;;;;;;;;;19.90;52.40;;;;;;4990235;28;1457;-66
2021/03/08 11:20:05;;;;;;;;;;;19.90;52.40;;;;;;4976279;28;1903;-65
2021/03/08 11:22:31;;;;;;;;;;;19.90;52.50;;;;;;4974903;28;1312;-65
2021/03/08 11:24:56;;;;;;;;;;;19.90;52.40;;;;;;4976208;28;1537;-63
2021/03/08 11:27:26;;;;;;;;;;;19.90;52.40;;;;;;4974471;28;2052;-62
2021/03/08 11:29:58;;;;;;;;;;;19.90;52.40;;;;;;4975835;28;1681;-63
2021/03/08 11:32:24;;;;;;;;;;;19.90;52.40;;;;;;4976035;28;1793;-65
2021/03/08 11:34:50;;;;;;;;;;;19.90;52.30;;;;;;4974684;28;1474;-62
2021/03/08 11:37:15;;;;;;;;;;;19.90;52.30;;;;;;4975580;28;1791;-64
2021/03/08 11:39:51;;;;;;;;;;;19.90;52.80;;;;;;4975700;28;1903;-62
2021/03/08 11:42:16;;;;;;;;;;;19.90;52.10;;;;;;4990908;28;1561;-62
2021/03/08 11:44:42;;;;;;;;;;;19.90;52.10;;;;;;4975683;28;1119;-63
2021/03/08 11:47:07;;;;;;;;;;;19.90;52.00;;;;;;4975204;28;1580;-64
2021/03/08 11:49:33;;;;;;;;;;;19.80;52.00;;;;;;4975723;28;1254;-63
2021/03/08 11:51:59;;;;;;;;;;;19.80;52.00;;;;;;4975690;28;1349;-63
2021/03/08 11:54:24;;;;;;;;;;;19.90;52.00;;;;;;4975264;28;1467;-68
2021/03/08 11:56:50;;;;;;;;;;;19.90;52.00;;;;;;4975522;28;1321;-67
2021/03/08 11:59:15;;;;;;;;;;;19.80;51.30;;;;;;4975148;28;1945;-67
2021/03/08 12:01:41;;;;;;;;;;;19.80;51.50;;;;;;4975209;28;1352;-65
2021/03/08 12:04:06;;;;;;;;;;;19.80;51.40;;;;;;4975643;28;1596;-70
2021/03/08 12:06:31;;;;;;;;;;;19.90;51.50;;;;;;4975377;28;1351;-65
2021/03/08 12:08:57;;;;;;;;;;;19.80;51.40;;;;;;4975148;28;1489;-66
2021/03/08 12:11:22;;;;;;;;;;;19.80;51.50;;;;;;4975414;28;1395;-68
2021/03/08 12:13:48;;;;;;;;;;;19.80;51.50;;;;;;4972801;28;1675;-66
2021/03/08 12:16:13;;;;;;;;;;;19.80;51.60;;;;;;4972184;28;1348;-66
2021/03/08 12:18:39;;;;;;;;;;;19.80;51.60;;;;;;4972433;28;1337;-66
2021/03/08 12:21:04;;;;;;;;;;;19.80;51.60;;;;;;4989551;28;1898;-66
2021/03/08 12:23:29;;;;;;;;;;;19.80;51.60;;;;;;4974338;28;1166;-66
2021/03/08 12:25:55;;;;;;;;;;;19.80;51.70;;;;;;4974002;28;1329;-64
2021/03/08 12:28:20;;;;;;;;;;;19.80;51.60;;;;;;4974031;28;1287;-65
2021/03/08 12:30:46;;;;;;;;;;;19.80;52.20;;;;;;4974269;28;1511;-64
2021/03/08 12:33:11;;;;;;;;;;;19.80;51.60;;;;;;4989414;28;1386;-65
2021/03/08 12:35:37;;;;;;;;;;;19.80;51.60;;;;;;4974005;28;1302;-64
2021/03/08 12:38:02;;;;;;;;;;;19.80;51.70;;;;;;4974037;28;1360;-61
2021/03/08 12:40:28;;;;;;;;;;;19.80;51.60;;;;;;4974347;28;1938;-63
2021/03/08 12:42:53;;;;;;;;;;;19.80;51.60;;;;;;4989305;28;1225;-61
2021/03/08 12:45:19;;;;;;;;;;;19.80;52.20;;;;;;4974322;28;1293;-62
2021/03/08 12:47:44;;;;;;;;;;;19.80;51.60;;;;;;4974380;28;1261;-62
2021/03/08 12:50:10;;;;;;;;;;;19.80;51.60;;;;;;4974447;28;1197;-61
2021/03/08 12:52:35;;;;;;;;;;;19.80;51.60;;;;;;4974615;28;1128;-61
2021/03/08 12:55:02;;;;;;;;;;;19.80;51.70;;;;;;4974820;28;1228;-62
2021/03/08 12:57:27;;;;;;;;;;;19.80;51.60;;;;;;4973441;28;1342;-62
2021/03/08 12:59:52;;;;;;;;;;;19.80;51.70;;;;;;4973506;28;1951;-62
2021/03/08 13:02:18;;;;;;;;;;;19.80;51.60;;;;;;4971878;28;1063;-61
2021/03/08 13:04:43;;;;;;;;;;;19.90;51.50;;;;;;4973618;28;1278;-62
2021/03/08 13:07:09;;;;;;;;;;;19.90;51.40;;;;;;4973120;28;1388;-61
2021/03/08 13:09:35;;;;;;;;;;;19.90;51.20;;;;;;4973732;28;711;-61
2021/03/08 13:12:00;;;;;;;;;;;20.00;51.10;;;;;;4973954;28;1222;-61
2021/03/08 13:14:26;;;;;;;;;;;20.00;51.00;;;;;;4974099;28;1297;-61
2021/03/08 13:16:51;;;;;;;;;;;20.10;51.00;;;;;;4973959;28;1304;-62
2021/03/08 13:19:16;;;;;;;;;;;20.10;50.90;;;;;;4973038;28;1891;-62
2021/03/08 13:21:42;;;;;;;;;;;20.20;50.80;;;;;;4974026;28;1282;-62
2021/03/08 13:24:07;;;;;;;;;;;20.30;50.70;;;;;;4974025;28;1273;-62
2021/03/08 13:26:33;;;;;;;;;;;20.30;50.50;;;;;;4973791;28;1723;-62
2021/03/08 13:28:58;;;;;;;;;;;20.40;50.40;;;;;;4973343;28;1262;-63
2021/03/08 13:31:24;;;;;;;;;;;20.50;50.30;;;;;;4973654;28;982;-63
2021/03/08 13:33:49;;;;;;;;;;;20.50;50.10;;;;;;4975662;28;1383;-64
2021/03/08 13:36:14;;;;;;;;;;;20.60;50.00;;;;;;4973632;28;1268;-64
2021/03/08 13:38:40;;;;;;;;;;;20.60;49.80;;;;;;4973520;28;1412;-64
2021/03/08 13:41:05;;;;;;;;;;;20.70;49.80;;;;;;4973944;28;1966;-63
2021/03/08 13:43:31;;;;;;;;;;;20.70;49.70;;;;;;4973502;28;1228;-63
2021/03/08 13:45:56;;;;;;;;;;;20.80;49.60;;;;;;4971767;28;1335;-63
2021/03/08 13:48:22;;;;;;;;;;;20.80;49.50;;;;;;4972814;28;1251;-64
2021/03/08 13:50:47;;;;;;;;;;;20.90;49.40;;;;;;4973716;28;1253;-63
2021/03/08 13:53:12;;;;;;;;;;;20.90;49.40;;;;;;4973456;28;1282;-65
2021/03/08 13:55:38;;;;;;;;;;;20.90;49.30;;;;;;4973413;28;1322;-64
2021/03/08 13:58:03;;;;;;;;;;;20.90;49.20;;;;;;4972864;28;1306;-63
2021/03/08 14:00:29;;;;;;;;;;;21.00;49.10;;;;;;4972944;28;1891;-63
2021/03/08 14:02:54;;;;;;;;;;;21.00;49.10;;;;;;4973309;28;1283;-64
2021/03/08 14:05:20;;;;;;;;;;;21.00;49.00;;;;;;4971835;28;1516;-63
2021/03/08 14:07:45;;;;;;;;;;;21.10;48.90;;;;;;4973070;28;1318;-63
2021/03/08 14:10:11;;;;;;;;;;;21.10;48.90;;;;;;4973051;28;1064;-63
2021/03/08 14:12:36;;;;;;;;;;;21.10;48.80;;;;;;4973187;28;1353;-63
2021/03/08 14:15:02;;;;;;;;;;;21.10;48.80;;;;;;4973121;28;1270;-61
2021/03/08 14:17:28;;;;;;;;;;;21.10;48.80;;;;;;4973129;28;1059;-61
2021/03/08 14:19:53;;;;;;;;;;;21.10;48.70;;;;;;4973040;28;1910;-63
2021/03/08 14:22:20;;;;;;;;;;;21.10;48.70;;;;;;4972858;28;1072;-62
2021/03/08 14:24:46;;;;;;;;;;;21.20;48.70;;;;;;4973416;28;1331;-62
2021/03/08 14:27:11;;;;;;;;;;;21.20;48.70;;;;;;4972059;28;1342;-65
2021/03/08 14:29:37;;;;;;;;;;;21.20;48.60;;;;;;4972738;28;959;-63
2021/03/08 14:32:03;;;;;;;;;;;21.20;48.60;;;;;;4975942;28;1050;-64